PWSweather.com
Personal Weather Stations
Station Observations
ESTGRALPAZ
Santa Fe, Santa FeAR 3000

Santa FeSanta FeAR 3000

Lat: -31.6280555556, Lon: -60.6908333333

Elevation: 69

Station Type: WH1081

http://www.estaciongralpaz.com.ar

Latest ConditionsUpdated 2:23:00 AM GMT-03:57 Thursday, Jun 27, 2019
Currently Today's Max Today's Min Today's Average
Temperature 48.4°F9.1°C 49.1°F9.5°C 47.1°F8.4°C 48.1°F8.9°C
Dew Point 36.4°F2.4°C 36.5°F2.5°C 35.0°F1.7°C 35.7°F2.1°C
Winds 6.9 mph N11.1 kmh N 9.2 mph -14.8 kmh - - 6.1 mph 9.8 kmh
Wind Gusts 10.7 mph17.2 kmh 14.5 mph23.3 kmh - -
Humidity 63% 64% 60% 62%
Pressure 29.81 in1009.5 mb 29.86 in1011.2 mb 29.81 in1009.5 mb -
Hour Temp Dew Point Humidity Winds Wind Gusts Pressure Precip Precip Rate Daily Precip Total
02:23 AM 48.4°F9.1°C 36.4°F2.4°C 63% 6.9 mph N11.1 kmh N 10.7 mph17.2 kmh 29.81 in1009.5 mb 0.00 in0.0 mm 0.00 in0.0 mm 0.00 in0.0 mm
02:22 AM 48.4°F9.1°C 36.4°F2.4°C 63% 6.9 mph N11.1 kmh N 10.7 mph17.2 kmh 29.81 in1009.5 mb 0.00 in0.0 mm 0.00 in0.0 mm 0.00 in0.0 mm
02:21 AM 48.4°F9.1°C 36.4°F2.4°C 63% 6.9 mph N11.1 kmh N 10.7 mph17.2 kmh 29.81 in1009.5 mb 0.00 in0.0 mm 0.00 in0.0 mm 0.00 in0.0 mm
02:20 AM 48.6°F9.2°C 36.5°F2.5°C 63% 5.4 mph N8.7 kmh N 11.4 mph18.3 kmh 29.82 in1009.8 mb 0.00 in0.0 mm 0.00 in0.0 mm 0.00 in0.0 mm
02:19 AM 48.6°F9.2°C 36.5°F2.5°C 63% 4.5 mph N7.2 kmh N 11.4 mph18.3 kmh 29.81 in1009.5 mb 0.00 in0.0 mm 0.00 in0.0 mm 0.00 in0.0 mm
02:18 AM 48.6°F9.2°C 36.5°F2.5°C 63% 6.0 mph N9.7 kmh N 11.4 mph18.3 kmh 29.82 in1009.8 mb 0.00 in0.0 mm 0.00 in0.0 mm 0.00 in0.0 mm
02:17 AM 48.6°F9.2°C 36.5°F2.5°C 63% 4.5 mph N7.2 kmh N 11.4 mph18.3 kmh 29.82 in1009.8 mb 0.00 in0.0 mm 0.00 in0.0 mm 0.00 in0.0 mm
02:16 AM 48.6°F9.2°C 36.5°F2.5°C 63% 7.6 mph N12.2 kmh N 11.4 mph18.3 kmh 29.82 in1009.8 mb 0.00 in0.0 mm 0.00 in0.0 mm 0.00 in0.0 mm
02:15 AM 48.6°F9.2°C 36.5°F2.5°C 63% 6.9 mph NNW11.1 kmh NNW 11.4 mph18.3 kmh 29.82 in1009.8 mb 0.00 in0.0 mm 0.00 in0.0 mm 0.00 in0.0 mm
02:14 AM 48.6°F9.2°C 36.5°F2.5°C 63% 5.4 mph NNW8.7 kmh NNW 11.4 mph18.3 kmh 29.81 in1009.5 mb 0.00 in0.0 mm 0.00 in0.0 mm 0.00 in0.0 mm
02:13 AM 48.7°F9.3°C 36.3°F2.4°C 62% 6.0 mph NNW9.7 kmh NNW 11.4 mph18.3 kmh 29.81 in1009.5 mb 0.00 in0.0 mm 0.00 in0.0 mm 0.00 in0.0 mm
02:12 AM 48.7°F9.3°C 36.3°F2.4°C 62% 6.0 mph N9.7 kmh N 11.4 mph18.3 kmh 29.81 in1009.5 mb 0.00 in0.0 mm 0.00 in0.0 mm 0.00 in0.0 mm
02:11 AM 48.7°F9.3°C 36.3°F2.4°C 62% 4.5 mph NNW7.2 kmh NNW 11.4 mph18.3 kmh 29.81 in1009.5 mb 0.00 in0.0 mm 0.00 in0.0 mm 0.00 in0.0 mm
02:10 AM 48.7°F9.3°C 36.3°F2.4°C 62% 7.6 mph NNW12.2 kmh NNW 11.4 mph18.3 kmh 29.82 in1009.8 mb 0.00 in0.0 mm 0.00 in0.0 mm 0.00 in0.0 mm
02:09 AM 48.7°F9.3°C 36.3°F2.4°C 62% 5.4 mph NNW8.7 kmh NNW 9.2 mph14.8 kmh 29.82 in1009.8 mb 0.00 in0.0 mm 0.00 in0.0 mm 0.00 in0.0 mm
02:08 AM 48.9°F9.4°C 36.5°F2.5°C 62% 3.8 mph NNW6.1 kmh NNW 10.7 mph17.2 kmh 29.82 in1009.8 mb 0.00 in0.0 mm 0.00 in0.0 mm 0.00 in0.0 mm
02:07 AM 48.9°F9.4°C 36.5°F2.5°C 62% 4.5 mph N7.2 kmh N 12.1 mph19.5 kmh 29.83 in1010.2 mb 0.00 in0.0 mm 0.00 in0.0 mm 0.00 in0.0 mm
02:06 AM 48.9°F9.4°C 36.1°F2.3°C 61% 4.5 mph N7.2 kmh N 12.1 mph19.5 kmh 29.82 in1009.8 mb 0.00 in0.0 mm 0.00 in0.0 mm 0.00 in0.0 mm
02:05 AM 48.9°F9.4°C 36.1°F2.3°C 61% 6.0 mph N9.7 kmh N 12.1 mph19.5 kmh 29.82 in1009.8 mb 0.00 in0.0 mm 0.00 in0.0 mm 0.00 in0.0 mm
02:04 AM 48.9°F9.4°C 36.1°F2.3°C 61% 6.0 mph N9.7 kmh N 12.1 mph19.5 kmh 29.82 in1009.8 mb 0.00 in0.0 mm 0.00 in0.0 mm 0.00 in0.0 mm
02:03 AM 48.9°F9.4°C 36.1°F2.3°C 61% 6.9 mph N11.1 kmh N 12.1 mph19.5 kmh 29.82 in1009.8 mb 0.00 in0.0 mm 0.00 in0.0 mm 0.00 in0.0 mm
02:02 AM 49.1°F9.5°C 36.2°F2.3°C 61% 5.4 mph N8.7 kmh N 12.1 mph19.5 kmh 29.82 in1009.8 mb 0.00 in0.0 mm 0.00 in0.0 mm 0.00 in0.0 mm
02:01 AM 49.1°F9.5°C 36.2°F2.3°C 61% 4.5 mph N7.2 kmh N 13.0 mph20.9 kmh 29.82 in1009.8 mb 0.00 in0.0 mm 0.00 in0.0 mm 0.00 in0.0 mm
02:00 AM 49.1°F9.5°C 36.2°F2.3°C 61% 6.0 mph N9.7 kmh N 13.0 mph20.9 kmh 29.82 in1009.8 mb 0.00 in0.0 mm 0.00 in0.0 mm 0.00 in0.0 mm
01:59 AM 49.1°F9.5°C 36.2°F2.3°C 61% 4.5 mph N7.2 kmh N 13.0 mph20.9 kmh 29.82 in1009.8 mb 0.00 in0.0 mm 0.00 in0.0 mm 0.00 in0.0 mm
01:58 AM 49.1°F9.5°C 35.8°F2.1°C 60% 7.6 mph N12.2 kmh N 13.0 mph20.9 kmh 29.83 in1010.2 mb 0.00 in0.0 mm 0.00 in0.0 mm 0.00 in0.0 mm
01:57 AM 49.1°F9.5°C 35.8°F2.1°C 60% 9.2 mph N14.8 kmh N 13.0 mph20.9 kmh 29.82 in1009.8 mb 0.00 in0.0 mm 0.00 in0.0 mm 0.00 in0.0 mm
01:56 AM 49.1°F9.5°C 35.8°F2.1°C 60% 5.4 mph N8.7 kmh N 13.0 mph20.9 kmh 29.82 in1009.8 mb 0.00 in0.0 mm 0.00 in0.0 mm 0.00 in0.0 mm
01:55 AM 49.1°F9.5°C 35.8°F2.1°C 60% 7.6 mph N12.2 kmh N 13.0 mph20.9 kmh 29.82 in1009.8 mb 0.00 in0.0 mm 0.00 in0.0 mm 0.00 in0.0 mm
01:54 AM 49.1°F9.5°C 35.8°F2.1°C 60% 6.0 mph N9.7 kmh N 13.0 mph20.9 kmh 29.82 in1009.8 mb 0.00 in0.0 mm 0.00 in0.0 mm 0.00 in0.0 mm
01:53 AM 49.1°F9.5°C 35.8°F2.1°C 60% 8.3 mph N13.4 kmh N 13.0 mph20.9 kmh 29.82 in1009.8 mb 0.00 in0.0 mm 0.00 in0.0 mm 0.00 in0.0 mm
01:52 AM 48.9°F9.4°C 35.7°F2.1°C 60% 6.0 mph N9.7 kmh N 13.0 mph20.9 kmh 29.82 in1009.8 mb 0.00 in0.0 mm 0.00 in0.0 mm 0.00 in0.0 mm
01:51 AM 48.9°F9.4°C 35.7°F2.1°C 60% 6.9 mph N11.1 kmh N 12.1 mph19.5 kmh 29.82 in1009.8 mb 0.00 in0.0 mm 0.00 in0.0 mm 0.00 in0.0 mm
01:50 AM 48.9°F9.4°C 35.7°F2.1°C 60% 7.6 mph N12.2 kmh N 12.1 mph19.5 kmh 29.82 in1009.8 mb 0.00 in0.0 mm 0.00 in0.0 mm 0.00 in0.0 mm
01:49 AM 48.9°F9.4°C 35.7°F2.1°C 60% 7.6 mph N12.2 kmh N 12.1 mph19.5 kmh 29.81 in1009.5 mb 0.00 in0.0 mm 0.00 in0.0 mm 0.00 in0.0 mm
01:48 AM 48.9°F9.4°C 35.7°F2.1°C 60% 4.5 mph N7.2 kmh N 12.1 mph19.5 kmh 29.82 in1009.8 mb 0.00 in0.0 mm 0.00 in0.0 mm 0.00 in0.0 mm
01:47 AM 48.9°F9.4°C 35.7°F2.1°C 60% 6.0 mph N9.7 kmh N 12.1 mph19.5 kmh 29.82 in1009.8 mb 0.00 in0.0 mm 0.00 in0.0 mm 0.00 in0.0 mm
01:46 AM 48.9°F9.4°C 35.7°F2.1°C 60% 6.0 mph N9.7 kmh N 12.1 mph19.5 kmh 29.82 in1009.8 mb 0.00 in0.0 mm 0.00 in0.0 mm 0.00 in0.0 mm
01:45 AM 48.9°F9.4°C 35.7°F2.1°C 60% 6.9 mph N11.1 kmh N 12.1 mph19.5 kmh 29.83 in1010.2 mb 0.00 in0.0 mm 0.00 in0.0 mm 0.00 in0.0 mm
01:44 AM 48.9°F9.4°C 35.7°F2.1°C 60% 7.6 mph N12.2 kmh N 12.1 mph19.5 kmh 29.82 in1009.8 mb 0.00 in0.0 mm 0.00 in0.0 mm 0.00 in0.0 mm
01:43 AM 48.9°F9.4°C 35.7°F2.1°C 60% 6.0 mph N9.7 kmh N 11.4 mph18.3 kmh 29.82 in1009.8 mb 0.00 in0.0 mm 0.00 in0.0 mm 0.00 in0.0 mm
01:42 AM 48.7°F9.3°C 35.5°F1.9°C 60% 6.0 mph N9.7 kmh N 11.4 mph18.3 kmh 29.82 in1009.8 mb 0.00 in0.0 mm 0.00 in0.0 mm 0.00 in0.0 mm
01:41 AM 48.7°F9.3°C 35.5°F1.9°C 60% 8.3 mph N13.4 kmh N 11.4 mph18.3 kmh 29.82 in1009.8 mb 0.00 in0.0 mm 0.00 in0.0 mm 0.00 in0.0 mm
01:40 AM 48.7°F9.3°C 35.5°F1.9°C 60% 6.9 mph N11.1 kmh N 11.4 mph18.3 kmh 29.82 in1009.8 mb 0.00 in0.0 mm 0.00 in0.0 mm 0.00 in0.0 mm
01:39 AM 48.7°F9.3°C 35.5°F1.9°C 60% 5.4 mph N8.7 kmh N 13.6 mph21.9 kmh 29.82 in1009.8 mb 0.00 in0.0 mm 0.00 in0.0 mm 0.00 in0.0 mm
01:38 AM 48.7°F9.3°C 35.5°F1.9°C 60% 6.9 mph N11.1 kmh N 13.6 mph21.9 kmh 29.83 in1010.2 mb 0.00 in0.0 mm 0.00 in0.0 mm 0.00 in0.0 mm
01:37 AM 48.6°F9.2°C 35.3°F1.8°C 60% 6.9 mph N11.1 kmh N 13.6 mph21.9 kmh 29.82 in1009.8 mb 0.00 in0.0 mm 0.00 in0.0 mm 0.00 in0.0 mm
01:36 AM 48.6°F9.2°C 35.3°F1.8°C 60% 6.9 mph N11.1 kmh N 13.6 mph21.9 kmh 29.83 in1010.2 mb 0.00 in0.0 mm 0.00 in0.0 mm 0.00 in0.0 mm
01:35 AM 48.6°F9.2°C 35.3°F1.8°C 60% 6.9 mph N11.1 kmh N 13.6 mph21.9 kmh 29.82 in1009.8 mb 0.00 in0.0 mm 0.00 in0.0 mm 0.00 in0.0 mm
01:34 AM 48.6°F9.2°C 35.3°F1.8°C 60% 6.9 mph N11.1 kmh N 13.6 mph21.9 kmh 29.82 in1009.8 mb 0.00 in0.0 mm 0.00 in0.0 mm 0.00 in0.0 mm
01:33 AM 48.6°F9.2°C 35.3°F1.8°C 60% 8.3 mph N13.4 kmh N 13.6 mph21.9 kmh 29.83 in1010.2 mb 0.00 in0.0 mm 0.00 in0.0 mm 0.00 in0.0 mm
01:32 AM 48.6°F9.2°C 35.3°F1.8°C 60% 5.4 mph N8.7 kmh N 13.6 mph21.9 kmh 29.82 in1009.8 mb 0.00 in0.0 mm 0.00 in0.0 mm 0.00 in0.0 mm
01:31 AM 48.6°F9.2°C 35.3°F1.8°C 60% 5.4 mph N8.7 kmh N 13.6 mph21.9 kmh 29.83 in1010.2 mb 0.00 in0.0 mm 0.00 in0.0 mm 0.00 in0.0 mm
01:30 AM 48.6°F9.2°C 35.3°F1.8°C 60% 9.2 mph N14.8 kmh N 13.6 mph21.9 kmh 29.82 in1009.8 mb 0.00 in0.0 mm 0.00 in0.0 mm 0.00 in0.0 mm
01:29 AM 48.4°F9.1°C 35.1°F1.7°C 60% 8.3 mph N13.4 kmh N 13.6 mph21.9 kmh 29.82 in1009.8 mb 0.00 in0.0 mm 0.00 in0.0 mm 0.00 in0.0 mm
01:28 AM 48.4°F9.1°C 35.1°F1.7°C 60% 7.6 mph N12.2 kmh N 13.6 mph21.9 kmh 29.83 in1010.2 mb 0.00 in0.0 mm 0.00 in0.0 mm 0.00 in0.0 mm
01:27 AM 48.4°F9.1°C 35.1°F1.7°C 60% 8.3 mph N13.4 kmh N 13.6 mph21.9 kmh 29.83 in1010.2 mb 0.00 in0.0 mm 0.00 in0.0 mm 0.00 in0.0 mm
01:26 AM 48.4°F9.1°C 35.1°F1.7°C 60% 7.6 mph N12.2 kmh N 13.6 mph21.9 kmh 29.82 in1009.8 mb 0.00 in0.0 mm 0.00 in0.0 mm 0.00 in0.0 mm
01:25 AM 48.4°F9.1°C 35.1°F1.7°C 60% 7.6 mph N12.2 kmh N 12.1 mph19.5 kmh 29.82 in1009.8 mb 0.00 in0.0 mm 0.00 in0.0 mm 0.00 in0.0 mm
01:24 AM 48.4°F9.1°C 35.1°F1.7°C 60% 7.6 mph N12.2 kmh N 14.5 mph23.3 kmh 29.82 in1009.8 mb 0.00 in0.0 mm 0.00 in0.0 mm 0.00 in0.0 mm
01:23 AM 48.4°F9.1°C 35.1°F1.7°C 60% 7.6 mph N12.2 kmh N 14.5 mph23.3 kmh 29.82 in1009.8 mb 0.00 in0.0 mm 0.00 in0.0 mm 0.00 in0.0 mm
01:22 AM 48.4°F9.1°C 35.1°F1.7°C 60% 6.0 mph N9.7 kmh N 14.5 mph23.3 kmh 29.82 in1009.8 mb 0.00 in0.0 mm 0.00 in0.0 mm 0.00 in0.0 mm
01:21 AM 48.4°F9.1°C 35.1°F1.7°C 60% 5.4 mph N8.7 kmh N 14.5 mph23.3 kmh 29.82 in1009.8 mb 0.00 in0.0 mm 0.00 in0.0 mm 0.00 in0.0 mm
01:20 AM 48.2°F9.0°C 35.0°F1.7°C 60% 5.4 mph N8.7 kmh N 14.5 mph23.3 kmh 29.82 in1009.8 mb 0.00 in0.0 mm 0.00 in0.0 mm 0.00 in0.0 mm
01:19 AM 48.4°F9.1°C 35.1°F1.7°C 60% 3.8 mph N6.1 kmh N 14.5 mph23.3 kmh 29.82 in1009.8 mb 0.00 in0.0 mm 0.00 in0.0 mm 0.00 in0.0 mm
01:18 AM 48.2°F9.0°C 35.0°F1.7°C 60% 5.4 mph N8.7 kmh N 14.5 mph23.3 kmh 29.82 in1009.8 mb 0.00 in0.0 mm 0.00 in0.0 mm 0.00 in0.0 mm
01:17 AM 48.2°F9.0°C 35.0°F1.7°C 60% 5.4 mph N8.7 kmh N 14.5 mph23.3 kmh 29.83 in1010.2 mb 0.00 in0.0 mm 0.00 in0.0 mm 0.00 in0.0 mm
01:16 AM 48.2°F9.0°C 35.0°F1.7°C 60% 8.3 mph N13.4 kmh N 14.5 mph23.3 kmh 29.83 in1010.2 mb 0.00 in0.0 mm 0.00 in0.0 mm 0.00 in0.0 mm
01:15 AM 48.2°F9.0°C 35.4°F1.9°C 61% 8.3 mph N13.4 kmh N 14.5 mph23.3 kmh 29.83 in1010.2 mb 0.00 in0.0 mm 0.00 in0.0 mm 0.00 in0.0 mm
01:14 AM 48.2°F9.0°C 35.4°F1.9°C 61% 7.6 mph N12.2 kmh N 14.5 mph23.3 kmh 29.83 in1010.2 mb 0.00 in0.0 mm 0.00 in0.0 mm 0.00 in0.0 mm
01:13 AM 48.2°F9.0°C 35.4°F1.9°C 61% 9.2 mph N14.8 kmh N 14.5 mph23.3 kmh 29.83 in1010.2 mb 0.00 in0.0 mm 0.00 in0.0 mm 0.00 in0.0 mm
01:12 AM 48.2°F9.0°C 35.4°F1.9°C 61% 7.6 mph N12.2 kmh N 13.0 mph20.9 kmh 29.83 in1010.2 mb 0.00 in0.0 mm 0.00 in0.0 mm 0.00 in0.0 mm
01:11 AM 48.2°F9.0°C 35.4°F1.9°C 61% 6.9 mph NNE11.1 kmh NNE 13.0 mph20.9 kmh 29.83 in1010.2 mb 0.00 in0.0 mm 0.00 in0.0 mm 0.00 in0.0 mm
01:10 AM 48.2°F9.0°C 35.4°F1.9°C 61% 8.3 mph NNE13.4 kmh NNE 13.0 mph20.9 kmh 29.84 in1010.5 mb 0.00 in0.0 mm 0.00 in0.0 mm 0.00 in0.0 mm
01:09 AM 48.2°F9.0°C 35.4°F1.9°C 61% 7.6 mph NNE12.2 kmh NNE 13.0 mph20.9 kmh 29.83 in1010.2 mb 0.00 in0.0 mm 0.00 in0.0 mm 0.00 in0.0 mm
01:08 AM 48.0°F8.9°C 35.6°F2.0°C 62% 7.6 mph NNE12.2 kmh NNE 13.0 mph20.9 kmh 29.84 in1010.5 mb 0.00 in0.0 mm 0.00 in0.0 mm 0.00 in0.0 mm
01:07 AM 48.0°F8.9°C 35.6°F2.0°C 62% 8.3 mph N13.4 kmh N 12.1 mph19.5 kmh 29.84 in1010.5 mb 0.00 in0.0 mm 0.00 in0.0 mm 0.00 in0.0 mm
01:06 AM 48.0°F8.9°C 35.6°F2.0°C 62% 8.3 mph N13.4 kmh N 12.1 mph19.5 kmh 29.84 in1010.5 mb 0.00 in0.0 mm 0.00 in0.0 mm 0.00 in0.0 mm
01:05 AM 48.0°F8.9°C 35.6°F2.0°C 62% 6.0 mph N9.7 kmh N 12.1 mph19.5 kmh 29.84 in1010.5 mb 0.00 in0.0 mm 0.00 in0.0 mm 0.00 in0.0 mm
01:04 AM 48.0°F8.9°C 35.6°F2.0°C 62% 7.6 mph N12.2 kmh N 12.1 mph19.5 kmh 29.84 in1010.5 mb 0.00 in0.0 mm 0.00 in0.0 mm 0.00 in0.0 mm
01:03 AM 48.0°F8.9°C 36.0°F2.2°C 63% 6.9 mph N11.1 kmh N 11.4 mph18.3 kmh 29.84 in1010.5 mb 0.00 in0.0 mm 0.00 in0.0 mm 0.00 in0.0 mm
01:02 AM 47.8°F8.8°C 35.9°F2.2°C 63% 6.0 mph N9.7 kmh N 11.4 mph18.3 kmh 29.84 in1010.5 mb 0.00 in0.0 mm 0.00 in0.0 mm 0.00 in0.0 mm
01:01 AM 47.8°F8.8°C 35.9°F2.2°C 63% 6.9 mph N11.1 kmh N 11.4 mph18.3 kmh 29.84 in1010.5 mb 0.00 in0.0 mm 0.00 in0.0 mm 0.00 in0.0 mm
01:00 AM 47.8°F8.8°C 35.9°F2.2°C 63% 7.6 mph N12.2 kmh N 11.4 mph18.3 kmh 29.84 in1010.5 mb 0.00 in0.0 mm 0.00 in0.0 mm 0.00 in0.0 mm
12:59 AM 47.8°F8.8°C 35.9°F2.2°C 63% 6.9 mph N11.1 kmh N 11.4 mph18.3 kmh 29.84 in1010.5 mb 0.00 in0.0 mm 0.00 in0.0 mm 0.00 in0.0 mm
12:58 AM 47.7°F8.7°C 35.7°F2.1°C 63% 6.0 mph N9.7 kmh N 11.4 mph18.3 kmh 29.84 in1010.5 mb 0.00 in0.0 mm 0.00 in0.0 mm 0.00 in0.0 mm
12:57 AM 47.7°F8.7°C 36.1°F2.3°C 64% 6.9 mph N11.1 kmh N 11.4 mph18.3 kmh 29.84 in1010.5 mb 0.00 in0.0 mm 0.00 in0.0 mm 0.00 in0.0 mm
12:56 AM 47.7°F8.7°C 36.1°F2.3°C 64% 6.0 mph N9.7 kmh N 11.4 mph18.3 kmh 29.84 in1010.5 mb 0.00 in0.0 mm 0.00 in0.0 mm 0.00 in0.0 mm
12:55 AM 47.7°F8.7°C 36.1°F2.3°C 64% 6.0 mph N9.7 kmh N 10.7 mph17.2 kmh 29.84 in1010.5 mb 0.00 in0.0 mm 0.00 in0.0 mm 0.00 in0.0 mm
12:54 AM 47.7°F8.7°C 36.1°F2.3°C 64% 5.4 mph N8.7 kmh N 10.7 mph17.2 kmh 29.84 in1010.5 mb 0.00 in0.0 mm 0.00 in0.0 mm 0.00 in0.0 mm
12:53 AM 47.7°F8.7°C 36.1°F2.3°C 64% 5.4 mph N8.7 kmh N 10.7 mph17.2 kmh 29.84 in1010.5 mb 0.00 in0.0 mm 0.00 in0.0 mm 0.00 in0.0 mm
12:52 AM 47.7°F8.7°C 36.1°F2.3°C 64% 6.9 mph N11.1 kmh N 10.7 mph17.2 kmh 29.84 in1010.5 mb 0.00 in0.0 mm 0.00 in0.0 mm 0.00 in0.0 mm
12:51 AM 47.5°F8.6°C 35.5°F1.9°C 63% 5.4 mph N8.7 kmh N 10.7 mph17.2 kmh 29.84 in1010.5 mb 0.00 in0.0 mm 0.00 in0.0 mm 0.00 in0.0 mm
12:50 AM 47.5°F8.6°C 35.5°F1.9°C 63% 8.3 mph N13.4 kmh N 10.7 mph17.2 kmh 29.84 in1010.5 mb 0.00 in0.0 mm 0.00 in0.0 mm 0.00 in0.0 mm
12:49 AM 47.5°F8.6°C 35.5°F1.9°C 63% 6.0 mph N9.7 kmh N 10.7 mph17.2 kmh 29.84 in1010.5 mb 0.00 in0.0 mm 0.00 in0.0 mm 0.00 in0.0 mm
12:48 AM 47.7°F8.7°C 35.7°F2.1°C 63% 5.4 mph N8.7 kmh N 10.7 mph17.2 kmh 29.84 in1010.5 mb 0.00 in0.0 mm 0.00 in0.0 mm 0.00 in0.0 mm
12:47 AM 47.7°F8.7°C 35.7°F2.1°C 63% 3.8 mph N6.1 kmh N 10.7 mph17.2 kmh 29.84 in1010.5 mb 0.00 in0.0 mm 0.00 in0.0 mm 0.00 in0.0 mm
12:46 AM 47.5°F8.6°C 35.5°F1.9°C 63% 7.6 mph N12.2 kmh N 10.7 mph17.2 kmh 29.84 in1010.5 mb 0.00 in0.0 mm 0.00 in0.0 mm 0.00 in0.0 mm
12:45 AM 47.5°F8.6°C 35.5°F1.9°C 63% 4.5 mph N7.2 kmh N 10.7 mph17.2 kmh 29.84 in1010.5 mb 0.00 in0.0 mm 0.00 in0.0 mm 0.00 in0.0 mm
12:44 AM 47.5°F8.6°C 35.5°F1.9°C 63% 5.4 mph N8.7 kmh N 10.7 mph17.2 kmh 29.84 in1010.5 mb 0.00 in0.0 mm 0.00 in0.0 mm 0.00 in0.0 mm
12:43 AM 47.5°F8.6°C 35.9°F2.2°C 64% 8.3 mph N13.4 kmh N 10.7 mph17.2 kmh 29.85 in1010.8 mb 0.00 in0.0 mm 0.00 in0.0 mm 0.00 in0.0 mm
12:42 AM 47.5°F8.6°C 35.9°F2.2°C 64% 7.6 mph N12.2 kmh N 13.6 mph21.9 kmh 29.84 in1010.5 mb 0.00 in0.0 mm 0.00 in0.0 mm 0.00 in0.0 mm
12:41 AM 47.5°F8.6°C 35.9°F2.2°C 64% 5.4 mph N8.7 kmh N 13.6 mph21.9 kmh 29.84 in1010.5 mb 0.00 in0.0 mm 0.00 in0.0 mm 0.00 in0.0 mm
12:40 AM 47.5°F8.6°C 35.9°F2.2°C 64% 6.0 mph N9.7 kmh N 13.6 mph21.9 kmh 29.84 in1010.5 mb 0.00 in0.0 mm 0.00 in0.0 mm 0.00 in0.0 mm
12:39 AM 47.5°F8.6°C 35.9°F2.2°C 64% 5.4 mph N8.7 kmh N 13.6 mph21.9 kmh 29.84 in1010.5 mb 0.00 in0.0 mm 0.00 in0.0 mm 0.00 in0.0 mm
12:38 AM 47.3°F8.5°C 35.8°F2.1°C 64% 6.9 mph N11.1 kmh N 13.6 mph21.9 kmh 29.84 in1010.5 mb 0.00 in0.0 mm 0.00 in0.0 mm 0.00 in0.0 mm
12:37 AM 47.3°F8.5°C 35.8°F2.1°C 64% 4.5 mph N7.2 kmh N 13.6 mph21.9 kmh 29.85 in1010.8 mb 0.00 in0.0 mm 0.00 in0.0 mm 0.00 in0.0 mm
12:36 AM 47.3°F8.5°C 35.8°F2.1°C 64% 5.4 mph N8.7 kmh N 13.6 mph21.9 kmh 29.85 in1010.8 mb 0.00 in0.0 mm 0.00 in0.0 mm 0.00 in0.0 mm
12:35 AM 47.3°F8.5°C 35.8°F2.1°C 64% 6.0 mph N9.7 kmh N 13.6 mph21.9 kmh 29.84 in1010.5 mb 0.00 in0.0 mm 0.00 in0.0 mm 0.00 in0.0 mm
12:34 AM 47.3°F8.5°C 35.8°F2.1°C 64% 4.5 mph N7.2 kmh N 13.6 mph21.9 kmh 29.85 in1010.8 mb 0.00 in0.0 mm 0.00 in0.0 mm 0.00 in0.0 mm
12:33 AM 47.3°F8.5°C 35.8°F2.1°C 64% 5.4 mph N8.7 kmh N 13.6 mph21.9 kmh 29.85 in1010.8 mb 0.00 in0.0 mm 0.00 in0.0 mm 0.00 in0.0 mm
12:32 AM 47.3°F8.5°C 35.8°F2.1°C 64% 8.3 mph N13.4 kmh N 13.6 mph21.9 kmh 29.84 in1010.5 mb 0.00 in0.0 mm 0.00 in0.0 mm 0.00 in0.0 mm
12:31 AM 47.1°F8.4°C 35.6°F2.0°C 64% 4.5 mph N7.2 kmh N 9.2 mph14.8 kmh 29.85 in1010.8 mb 0.00 in0.0 mm 0.00 in0.0 mm 0.00 in0.0 mm
12:30 AM 47.1°F8.4°C 35.6°F2.0°C 64% 4.5 mph N7.2 kmh N 9.2 mph14.8 kmh 29.85 in1010.8 mb 0.00 in0.0 mm 0.00 in0.0 mm 0.00 in0.0 mm
12:29 AM 47.1°F8.4°C 35.6°F2.0°C 64% 6.0 mph N9.7 kmh N 9.2 mph14.8 kmh 29.84 in1010.5 mb 0.00 in0.0 mm 0.00 in0.0 mm 0.00 in0.0 mm
12:28 AM 47.1°F8.4°C 35.6°F2.0°C 64% 5.4 mph N8.7 kmh N 7.6 mph12.2 kmh 29.84 in1010.5 mb 0.00 in0.0 mm 0.00 in0.0 mm 0.00 in0.0 mm
12:27 AM 47.1°F8.4°C 35.6°F2.0°C 64% 5.4 mph N8.7 kmh N 7.6 mph12.2 kmh 29.84 in1010.5 mb 0.00 in0.0 mm 0.00 in0.0 mm 0.00 in0.0 mm
12:26 AM 47.1°F8.4°C 35.6°F2.0°C 64% 5.4 mph N8.7 kmh N 7.6 mph12.2 kmh 29.84 in1010.5 mb 0.00 in0.0 mm 0.00 in0.0 mm 0.00 in0.0 mm
12:25 AM 47.1°F8.4°C 35.6°F2.0°C 64% 5.4 mph N8.7 kmh N 8.3 mph13.4 kmh 29.84 in1010.5 mb 0.00 in0.0 mm 0.00 in0.0 mm 0.00 in0.0 mm
12:24 AM 47.1°F8.4°C 35.6°F2.0°C 64% 3.8 mph N6.1 kmh N 8.3 mph13.4 kmh 29.84 in1010.5 mb 0.00 in0.0 mm 0.00 in0.0 mm 0.00 in0.0 mm
12:23 AM 47.1°F8.4°C 35.6°F2.0°C 64% 4.5 mph N7.2 kmh N 8.3 mph13.4 kmh 29.85 in1010.8 mb 0.00 in0.0 mm 0.00 in0.0 mm 0.00 in0.0 mm
12:22 AM 47.1°F8.4°C 35.6°F2.0°C 64% 3.8 mph N6.1 kmh N 8.3 mph13.4 kmh 29.84 in1010.5 mb 0.00 in0.0 mm 0.00 in0.0 mm 0.00 in0.0 mm
12:21 AM 47.1°F8.4°C 35.6°F2.0°C 64% 6.0 mph N9.7 kmh N 8.3 mph13.4 kmh 29.85 in1010.8 mb 0.00 in0.0 mm 0.00 in0.0 mm 0.00 in0.0 mm
12:20 AM 47.3°F8.5°C 35.8°F2.1°C 64% 3.8 mph N6.1 kmh N 8.3 mph13.4 kmh 29.84 in1010.5 mb 0.00 in0.0 mm 0.00 in0.0 mm 0.00 in0.0 mm
12:19 AM 47.3°F8.5°C 35.8°F2.1°C 64% 3.1 mph N5.0 kmh N 8.3 mph13.4 kmh 29.86 in1011.2 mb 0.00 in0.0 mm 0.00 in0.0 mm 0.00 in0.0 mm
12:18 AM 47.3°F8.5°C 35.8°F2.1°C 64% 4.5 mph N7.2 kmh N 8.3 mph13.4 kmh 29.85 in1010.8 mb 0.00 in0.0 mm 0.00 in0.0 mm 0.00 in0.0 mm
12:17 AM 47.3°F8.5°C 35.8°F2.1°C 64% 3.8 mph N6.1 kmh N 8.3 mph13.4 kmh 29.85 in1010.8 mb 0.00 in0.0 mm 0.00 in0.0 mm 0.00 in0.0 mm
12:16 AM 47.3°F8.5°C 35.8°F2.1°C 64% 5.4 mph N8.7 kmh N 8.3 mph13.4 kmh 29.85 in1010.8 mb 0.00 in0.0 mm 0.00 in0.0 mm 0.00 in0.0 mm
12:15 AM 47.3°F8.5°C 35.8°F2.1°C 64% 3.8 mph N6.1 kmh N 10.7 mph17.2 kmh 29.85 in1010.8 mb 0.00 in0.0 mm 0.00 in0.0 mm 0.00 in0.0 mm
12:14 AM 47.3°F8.5°C 35.8°F2.1°C 64% 3.8 mph N6.1 kmh N 10.7 mph17.2 kmh 29.85 in1010.8 mb 0.00 in0.0 mm 0.00 in0.0 mm 0.00 in0.0 mm
12:13 AM 47.3°F8.5°C 35.8°F2.1°C 64% 5.4 mph N8.7 kmh N 11.4 mph18.3 kmh 29.85 in1010.8 mb 0.00 in0.0 mm 0.00 in0.0 mm 0.00 in0.0 mm
12:12 AM 47.3°F8.5°C 35.4°F1.9°C 63% 5.4 mph N8.7 kmh N 11.4 mph18.3 kmh 29.85 in1010.8 mb 0.00 in0.0 mm 0.00 in0.0 mm 0.00 in0.0 mm
12:11 AM 47.3°F8.5°C 35.4°F1.9°C 63% 5.4 mph N8.7 kmh N 11.4 mph18.3 kmh 29.85 in1010.8 mb 0.00 in0.0 mm 0.00 in0.0 mm 0.00 in0.0 mm
12:10 AM 47.3°F8.5°C 35.4°F1.9°C 63% 3.1 mph NNW5.0 kmh NNW 11.4 mph18.3 kmh 29.86 in1011.2 mb 0.00 in0.0 mm 0.00 in0.0 mm 0.00 in0.0 mm
12:09 AM 47.5°F8.6°C 35.5°F1.9°C 63% 4.5 mph NNW7.2 kmh NNW 11.4 mph18.3 kmh 29.85 in1010.8 mb 0.00 in0.0 mm 0.00 in0.0 mm 0.00 in0.0 mm
12:08 AM 47.5°F8.6°C 35.5°F1.9°C 63% 5.4 mph NNW8.7 kmh NNW 11.4 mph18.3 kmh 29.86 in1011.2 mb 0.00 in0.0 mm 0.00 in0.0 mm 0.00 in0.0 mm
12:07 AM 47.5°F8.6°C 35.5°F1.9°C 63% 3.8 mph N6.1 kmh N 11.4 mph18.3 kmh 29.86 in1011.2 mb 0.00 in0.0 mm 0.00 in0.0 mm 0.00 in0.0 mm
12:06 AM 47.5°F8.6°C 35.5°F1.9°C 63% 5.4 mph N8.7 kmh N 11.4 mph18.3 kmh 29.86 in1011.2 mb 0.00 in0.0 mm 0.00 in0.0 mm 0.00 in0.0 mm
12:05 AM 47.5°F8.6°C 35.5°F1.9°C 63% 5.4 mph N8.7 kmh N 11.4 mph18.3 kmh 29.86 in1011.2 mb 0.00 in0.0 mm 0.00 in0.0 mm 0.00 in0.0 mm
12:04 AM 47.5°F8.6°C 35.5°F1.9°C 63% 6.9 mph N11.1 kmh N 11.4 mph18.3 kmh 29.85 in1010.8 mb 0.00 in0.0 mm 0.00 in0.0 mm 0.00 in0.0 mm
12:03 AM 47.7°F8.7°C 35.7°F2.1°C 63% 5.4 mph N8.7 kmh N 10.7 mph17.2 kmh 29.85 in1010.8 mb 0.00 in0.0 mm 0.00 in0.0 mm 0.00 in0.0 mm
12:02 AM 47.7°F8.7°C 35.7°F2.1°C 63% 6.0 mph N9.7 kmh N 10.7 mph17.2 kmh 29.86 in1011.2 mb 0.00 in0.0 mm 0.00 in0.0 mm 0.00 in0.0 mm
12:01 AM 47.7°F8.7°C 35.7°F2.1°C 63% 5.4 mph N8.7 kmh N 10.7 mph17.2 kmh 29.86 in1011.2 mb 0.00 in0.0 mm 0.00 in0.0 mm 0.00 in0.0 mm
12:00 AM 47.7°F8.7°C 35.7°F2.1°C 63% 6.9 mph N11.1 kmh N 10.7 mph17.2 kmh 29.85 in1010.8 mb 0.00 in0.0 mm 0.00 in0.0 mm 0.00 in0.0 mm